Flight Track Log - Related Links

Times and Time Zones

All times are in EDT time to prevent confusion due to time zone crossing. See the SKW5631 flight status page for this flight to view local times or setup timezone preferences in your user account.

Time Position Orientation Groundspeed Altitude Reporting Facility
EDT Latitude Longitude Course Direction KTS MPH feet Rate Location/Type
Wed 06:43:34 PM 37.6333 -122.3500 38° Northeast 146 168 1,300  Level Northern Cal TRACON
Wed 06:44:34 PM 37.6667 -122.3167 38° Northeast 179 206 3,000 1,500 Climbing Northern Cal TRACON
Wed 06:45:18 PM 37.6906 -122.2908 41° Northeast 177 204 3,900 1,371 Climbing Oakland Center
Wed 06:46:19 PM 37.7306 -122.2461 41° Northeast 188 216 5,400 1,623 Climbing Oakland Center
Wed 06:47:20 PM 37.7503 -122.1633 73° East 209 241 7,200 1,574 Climbing Oakland Center
Wed 06:48:21 PM 37.7542 -122.0928 86° East 205 236 8,600 1,463 Climbing Oakland Center
Wed 06:49:23 PM 37.7567 -122.0206 87° East 206 237 10,200 1,463 Climbing Oakland Center
Wed 06:50:24 PM 37.7742 -121.9447 74° East 221 254 11,600 1,426 Climbing Oakland Center
Wed 06:51:25 PM 37.7683 -121.8728 96° East 219 252 13,100 1,082 Climbing Oakland Center
Wed 06:52:26 PM 37.7353 -121.7997 120° Southeast 238 274 13,800 829 Climbing Oakland Center
Wed 06:53:28 PM 37.7014 -121.7233 119° Southeast 247 284 14,800 1,024 Climbing Oakland Center
Wed 06:54:29 PM 37.6694 -121.6453 117° Southeast 250 288 15,900 1,033 Climbing Oakland Center
Wed 06:55:30 PM 37.6375 -121.5678 117° Southeast 248 285 16,900 1,033 Climbing Oakland Center
Wed 06:56:31 PM 37.6058 -121.4908 117° Southeast 247 284 18,000 1,073 Climbing Oakland Center
Wed 06:57:33 PM 37.5681 -121.4000 118° Southeast 246 283 19,100 927 Climbing Oakland Center
Wed 06:58:34 PM 37.5358 -121.3217 117° Southeast 252 290 19,900 738 Climbing Oakland Center
Wed 06:59:35 PM 37.5028 -121.2436 118° Southeast 252 290 20,600 732 Climbing Oakland Center
Wed 07:00:37 PM 37.4692 -121.1647 118° Southeast 256 295 21,400 732 Climbing Oakland Center
Wed 07:01:38 PM 37.4333 -121.0775 117° Southeast 263 303 22,100 683 Climbing Oakland Center
Wed 07:02:40 PM 37.3983 -120.9972 119° Southeast 263 303 22,800 439 Climbing Oakland Center
Wed 07:03:41 PM 37.3628 -120.9142 118° Southeast 267 307 23,000 98 Climbing Oakland Center
Wed 07:04:42 PM 37.3247 -120.8247 118° Southeast 288 331 23,000  Level Oakland Center
Wed 07:05:44 PM 37.2836 -120.7369 120° Southeast 300 345 23,000  Level Oakland Center
Wed 07:06:45 PM 37.2456 -120.6481 118° Southeast 294 338 23,000  Level Oakland Center
Wed 07:07:46 PM 37.2069 -120.5597 119° Southeast 290 334 23,000  Level Oakland Center
Wed 07:08:48 PM 37.1600 -120.4553 119° Southeast 290 334 23,000  Level Oakland Center
Wed 07:09:49 PM 37.1233 -120.3664 117° Southeast 288 331 23,000  Level Oakland Center
Wed 07:10:51 PM 37.0858 -120.2794 118° Southeast 284 327 23,000  Level Oakland Center
Wed 07:11:52 PM 37.0486 -120.1936 118° Southeast 280 322 23,000 -49 Level Oakland Center
Wed 07:12:54 PM 37.0081 -120.1006 119° Southeast 284 327 22,900 -439 Descending Oakland Center
Wed 07:13:55 PM 36.9681 -120.0094 119° Southeast 299 344 22,100 -738 Descending Oakland Center
Wed 07:14:56 PM 36.9258 -119.9136 119° Southeast 311 358 21,400 -537 Descending Oakland Center
Wed 07:15:58 PM 36.8806 -119.8222 122° Southeast 308 354 21,000 -195 Descending Oakland Center
Wed 07:16:59 PM 36.8069 -119.7794 155° Southeast 292 336 21,000  Level Oakland Center
Wed 07:18:01 PM 36.7350 -119.7356 154° Southeast 284 327 21,000  Level Oakland Center
Wed 07:19:02 PM 36.6617 -119.6978 158° South 284 327 21,000 -439 Level Oakland Center
Wed 07:20:04 PM 36.5883 -119.6586 157° South 287 330 20,100 -1,024 Descending Oakland Center
Wed 07:21:05 PM 36.4911 -119.6086 158° South 313 360 18,900 -1,220 Descending Oakland Center
Wed 07:22:07 PM 36.4097 -119.5658 157° South 317 365 17,600 -1,171 Descending Oakland Center
Wed 07:23:08 PM 36.3289 -119.5239 157° South 316 364 16,500 -1,122 Descending Oakland Center
Wed 07:24:10 PM 36.2481 -119.4833 158° South 314 361 15,300 -732 Descending Oakland Center
Wed 07:25:11 PM 36.1703 -119.4428 157° South 303 349 15,000 -634 Descending Oakland Center
Wed 07:26:13 PM 36.0956 -119.4044 157° South 293 337 14,000 -1,073 Descending Oakland Center
Wed 07:27:14 PM 36.0189 -119.3661 158° South 296 341 12,800 -1,131 Descending Oakland Center
Wed 07:28:15 PM 35.9436 -119.3300 159° South 292 336 11,700 -1,171 Descending Oakland Center
Wed 07:29:17 PM 35.8706 -119.2936 158° South 286 329 10,400 -1,463 Descending Oakland Center
Wed 07:30:18 PM 35.7825 -119.2475 157° South 285 328 8,700 -1,328 Descending Oakland Center
Wed 07:31:19 PM 35.7100 -119.2125 159° South 283 326 7,700 -927 Descending Oakland Center
Wed 07:32:21 PM 35.6442 -119.1794 158° South 274 315 6,800 -977 Descending Oakland Center
Wed 07:32:45 PM 35.6214 -119.1669 156° South 268 308 6,300 -837 Descending Los Angeles Center
Wed 07:33:47 PM 35.5639 -119.1353 156° South 252 290 5,600 -484 Descending Los Angeles Center
Wed 07:34:49 PM 35.5136 -119.0997 150° Southeast 233 268 5,300 -532 Descending Los Angeles Center
Wed 07:35:51 PM 35.4736 -119.0481 134° Southeast 216 249 4,500 -726 Descending Los Angeles Center
Wed 07:36:53 PM 35.4317 -118.9953 134° Southeast 215 247 3,800 -677 Descending Los Angeles Center
Wed 07:39:00 PM 35.4333 -119.0500 151° Southeast  Level FlightAware Approximate
Wed 07:46:00 PM 35.4339 -119.0577 151° Southeast  Level Estimated

Login

Don't have an account? Register now (free) for customized features, flight alerts, and more!